createdAt,value
2018-05-16T00:00:14.873Z,64.76
2018-05-16T00:02:07.710Z,64.47
2018-05-16T00:03:07.649Z,64.18
2018-05-16T00:05:00.650Z,63.80
2018-05-16T00:06:00.716Z,64.37
2018-05-16T00:07:53.443Z,64.76
2018-05-16T00:08:53.395Z,63.80
2018-05-16T00:10:46.225Z,64.56
2018-05-16T00:11:46.204Z,64.47
2018-05-16T00:13:39.146Z,63.99
2018-05-16T00:14:38.989Z,63.80
2018-05-16T00:16:31.990Z,64.37
2018-05-16T00:17:31.912Z,63.80
2018-05-16T00:19:24.915Z,64.56
2018-05-16T00:20:24.861Z,63.60
2018-05-16T00:22:17.734Z,64.28
2018-05-16T00:23:17.677Z,64.56
2018-05-16T00:25:10.660Z,64.37
2018-05-16T00:26:10.655Z,63.89
2018-05-16T00:28:03.606Z,64.66
2018-05-16T00:29:03.564Z,64.76
2018-05-16T00:30:56.792Z,64.37
2018-05-16T00:31:56.751Z,64.40
2018-05-16T00:33:49.740Z,64.66
2018-05-16T00:34:49.695Z,64.98
2018-05-16T00:36:42.502Z,65.05
2018-05-16T00:37:42.490Z,64.28
2018-05-16T00:39:35.296Z,65.26
2018-05-16T00:40:35.254Z,65.36
2018-05-16T00:42:28.131Z,64.69
2018-05-16T00:43:28.080Z,64.59
2018-05-16T00:45:20.982Z,65.14
2018-05-16T00:46:20.865Z,65.55
2018-05-16T00:48:13.861Z,65.46
2018-05-16T00:49:14.004Z,65.26
2018-05-16T00:51:07.080Z,65.75
2018-05-16T00:52:07.020Z,65.36
2018-05-16T00:53:59.992Z,65.26
2018-05-16T00:54:59.961Z,65.36
2018-05-16T00:56:52.950Z,65.94
2018-05-16T00:57:52.897Z,65.84
2018-05-16T00:59:45.752Z,65.84
2018-05-16T01:00:45.699Z,66.42
2018-05-16T01:02:38.708Z,66.48
2018-05-16T01:03:38.659Z,66.67
2018-05-16T01:05:31.700Z,66.67
2018-05-16T01:06:31.718Z,66.71
2018-05-16T01:08:24.899Z,67.72
2018-05-16T01:09:24.765Z,67.09
2018-05-16T01:11:17.782Z,67.25
2018-05-16T01:12:17.728Z,67.28
2018-05-16T01:14:10.758Z,67.34
2018-05-16T01:15:10.708Z,67.63
2018-05-16T01:17:03.532Z,68.01
2018-05-16T01:18:03.486Z,67.72
2018-05-16T01:19:56.500Z,67.95
2018-05-16T01:20:56.420Z,68.01
2018-05-16T01:22:49.232Z,68.59
2018-05-16T01:23:49.200Z,69.07
2018-05-16T01:25:42.046Z,69.17
2018-05-16T01:26:42.037Z,68.97
2018-05-16T01:28:35.263Z,69.26
2018-05-16T01:29:35.138Z,68.97
2018-05-16T01:31:28.101Z,69.07
2018-05-16T01:32:28.058Z,69.07
2018-05-16T01:34:21.076Z,68.87
2018-05-16T01:35:21.017Z,69.07
2018-05-16T01:37:14.098Z,69.17
2018-05-16T01:38:13.887Z,69.45
2018-05-16T01:40:07.020Z,69.26
2018-05-16T01:41:06.830Z,69.74
2018-05-16T01:42:59.823Z,70.12
2018-05-16T01:43:59.799Z,69.64
2018-05-16T01:45:52.646Z,69.74
2018-05-16T01:46:52.589Z,69.64
2018-05-16T01:48:45.525Z,69.74
2018-05-16T01:49:45.405Z,70.41
2018-05-16T01:51:38.227Z,70.64
2018-05-16T01:52:38.178Z,70.54
2018-05-16T01:54:31.168Z,70.64
2018-05-16T01:55:31.121Z,70.31
2018-05-16T01:57:24.292Z,71.17
2018-05-16T01:58:24.211Z,70.44
2018-05-16T02:00:17.384Z,70.83
2018-05-16T02:01:17.452Z,70.64
2018-05-16T02:03:10.161Z,71.69
2018-05-16T02:04:10.111Z,71.11
2018-05-16T02:06:03.304Z,71.59
2018-05-16T02:07:03.261Z,71.40
2018-05-16T02:08:56.225Z,73.70
2018-05-16T02:09:56.206Z,74.27
2018-05-16T02:11:49.541Z,74.85
2018-05-16T02:12:49.356Z,74.27
2018-05-16T02:14:42.344Z,74.85
2018-05-16T02:15:42.317Z,74.95
2018-05-16T02:17:35.140Z,75.90
2018-05-16T02:18:35.081Z,76.29
2018-05-16T02:20:27.899Z,77.15
2018-05-16T02:21:27.863Z,76.86
2018-05-16T02:23:20.981Z,78.45
2018-05-16T02:24:20.844Z,78.69
2018-05-16T02:26:13.653Z,81.71
2018-05-16T02:27:13.552Z,82.29
2018-05-16T02:29:06.526Z,83.63
2018-05-16T02:30:06.496Z,84.68
2018-05-16T02:31:59.468Z,85.64
2018-05-16T02:32:59.432Z,85.64
2018-05-16T02:34:52.373Z,86.17
2018-05-16T02:35:52.277Z,86.17
2018-05-16T02:37:45.278Z,87.70
2018-05-16T02:38:45.230Z,87.41
2018-05-16T02:40:38.513Z,87.41
2018-05-16T02:41:38.173Z,87.95
2018-05-16T02:43:31.367Z,88.13
2018-05-16T02:44:31.279Z,88.62
2018-05-16T02:46:24.239Z,89.09
2018-05-16T02:47:24.206Z,90.53
2018-05-16T02:49:17.564Z,89.76
2018-05-16T02:50:17.374Z,90.63
2018-05-16T02:52:10.391Z,90.82
2018-05-16T02:53:10.341Z,91.30
2018-05-16T02:55:03.351Z,91.87
2018-05-16T02:56:03.314Z,92.54
2018-05-16T02:57:56.245Z,91.92
2018-05-16T02:58:56.190Z,92.40
2018-05-16T03:00:49.171Z,92.40
2018-05-16T03:01:49.144Z,92.97
2018-05-16T03:03:42.147Z,93.35
2018-05-16T03:04:42.148Z,93.35
2018-05-16T03:06:35.303Z,93.64
2018-05-16T03:07:35.238Z,94.12
2018-05-16T03:09:28.219Z,93.35
2018-05-16T03:10:28.328Z,94.12
2018-05-16T03:12:21.467Z,94.31
2018-05-16T03:13:21.349Z,94.12
2018-05-16T03:15:14.180Z,94.79
2018-05-16T03:16:14.137Z,94.79
2018-05-16T03:18:07.128Z,94.79
2018-05-16T03:19:07.177Z,94.60
2018-05-16T03:21:00.312Z,94.12
2018-05-16T03:22:00.241Z,94.79
2018-05-16T03:23:53.213Z,94.70
2018-05-16T03:24:53.174Z,95.07
2018-05-16T03:26:46.172Z,95.46
2018-05-16T03:27:46.118Z,95.27
2018-05-16T03:29:39.220Z,94.70
2018-05-16T03:30:38.975Z,95.46
2018-05-16T03:32:31.994Z,95.56
2018-05-16T03:33:31.923Z,94.98
2018-05-16T03:35:24.778Z,95.75
2018-05-16T03:36:24.715Z,96.13
2018-05-16T03:38:17.694Z,95.98
2018-05-16T03:39:17.653Z,95.70
2018-05-16T03:41:10.708Z,95.98
2018-05-16T03:42:10.633Z,95.89
2018-05-16T03:44:03.639Z,95.94
2018-05-16T03:45:03.593Z,95.89
2018-05-16T03:46:56.730Z,95.79
2018-05-16T03:47:56.693Z,95.70
2018-05-16T03:49:49.682Z,96.89
2018-05-16T03:50:49.643Z,96.22
2018-05-16T03:52:42.644Z,96.13
2018-05-16T03:53:42.592Z,95.84
2018-05-16T03:55:35.807Z,96.42
2018-05-16T03:56:35.741Z,95.89
2018-05-16T03:58:28.764Z,95.94
2018-05-16T03:59:28.703Z,95.75
2018-05-16T04:01:22.003Z,95.75
2018-05-16T04:02:21.961Z,95.94
2018-05-16T04:04:14.669Z,96.66
2018-05-16T04:05:14.640Z,96.84
2018-05-16T04:07:07.645Z,97.23
2018-05-16T04:08:07.590Z,97.04
2018-05-16T04:10:00.824Z,97.56
2018-05-16T04:11:00.718Z,97.85
2018-05-16T04:12:53.698Z,97.28
2018-05-16T04:13:53.645Z,97.08
2018-05-16T04:15:46.669Z,97.28
2018-05-16T04:16:46.624Z,97.28
2018-05-16T04:18:39.743Z,96.99
2018-05-16T04:19:39.690Z,96.51
2018-05-16T04:21:32.671Z,96.51
2018-05-16T04:22:32.714Z,96.61
2018-05-16T04:24:25.492Z,96.80
2018-05-16T04:25:25.408Z,96.32
2018-05-16T04:27:18.643Z,95.84
2018-05-16T04:28:18.544Z,95.36
2018-05-16T04:30:11.537Z,95.07
2018-05-16T04:31:11.573Z,95.27
2018-05-16T04:33:04.734Z,96.13
2018-05-16T04:34:04.601Z,95.27
2018-05-16T04:35:57.428Z,95.07
2018-05-16T04:36:57.380Z,94.79
2018-05-16T04:38:50.383Z,94.89
2018-05-16T04:39:50.379Z,94.89
2018-05-16T04:41:43.304Z,94.70
2018-05-16T04:42:43.249Z,95.46
2018-05-16T04:44:36.341Z,95.17
2018-05-16T04:45:36.107Z,95.17
2018-05-16T04:47:29.078Z,95.36
2018-05-16T04:48:29.066Z,95.31
2018-05-16T04:50:22.049Z,95.22
2018-05-16T04:51:22.026Z,94.93
2018-05-16T04:53:14.821Z,94.65
2018-05-16T04:54:14.770Z,94.26
2018-05-16T04:56:07.779Z,93.59
2018-05-16T04:57:07.589Z,93.79
2018-05-16T04:59:00.654Z,94.45
2018-05-16T05:00:00.595Z,94.17
2018-05-16T05:01:53.559Z,93.21
2018-05-16T05:02:53.535Z,93.69
2018-05-16T05:04:46.451Z,93.69
2018-05-16T05:05:46.385Z,93.40
2018-05-16T05:07:39.298Z,93.40
2018-05-16T05:08:39.190Z,93.69
2018-05-16T05:10:31.995Z,93.30
2018-05-16T05:11:31.945Z,93.30
2018-05-16T05:13:24.929Z,92.25
2018-05-16T05:14:24.903Z,92.35
2018-05-16T05:16:17.730Z,93.40
2018-05-16T05:17:17.681Z,93.74
2018-05-16T05:19:10.738Z,92.97
2018-05-16T05:20:10.501Z,93.83
2018-05-16T05:22:03.599Z,92.78
2018-05-16T05:23:03.531Z,92.40
2018-05-16T05:24:56.511Z,91.15
2018-05-16T05:25:56.471Z,91.72
2018-05-16T05:27:49.557Z,91.05
2018-05-16T05:28:49.397Z,90.67
2018-05-16T05:30:42.385Z,91.05
2018-05-16T05:31:42.342Z,90.48
2018-05-16T05:33:35.299Z,90.39
2018-05-16T05:34:35.347Z,89.90
2018-05-16T05:36:28.469Z,91.72
2018-05-16T05:37:28.377Z,91.92
2018-05-16T05:39:21.355Z,92.30
2018-05-16T05:40:21.313Z,91.25
2018-05-16T05:42:14.322Z,91.34
2018-05-16T05:43:14.306Z,91.44
2018-05-16T05:45:07.313Z,91.72
2018-05-16T05:46:07.076Z,91.25
2018-05-16T05:48:00.116Z,90.48
2018-05-16T05:49:00.089Z,89.28
2018-05-16T05:50:53.075Z,89.72
2018-05-16T05:51:53.011Z,89.95
2018-05-16T05:53:45.845Z,89.95
2018-05-16T05:54:45.811Z,89.95
2018-05-16T05:56:38.798Z,87.55
2018-05-16T05:57:38.621Z,86.69
2018-05-16T05:59:31.610Z,87.37
2018-05-16T06:00:31.556Z,86.65
2018-05-16T06:02:24.540Z,86.21
2018-05-16T06:03:24.492Z,86.60
2018-05-16T06:05:17.308Z,87.55
2018-05-16T06:06:17.271Z,87.84
2018-05-16T06:08:10.308Z,87.27
2018-05-16T06:09:10.258Z,87.55
2018-05-16T06:11:03.111Z,87.46
2018-05-16T06:12:03.043Z,87.55
2018-05-16T06:13:56.037Z,87.74
2018-05-16T06:14:55.996Z,86.79
2018-05-16T06:16:49.097Z,87.08
2018-05-16T06:17:48.933Z,87.74
2018-05-16T06:19:41.956Z,86.69
2018-05-16T06:20:41.867Z,86.60
2018-05-16T06:22:34.856Z,86.50
2018-05-16T06:23:34.810Z,86.41
2018-05-16T06:25:27.893Z,86.12
2018-05-16T06:26:27.738Z,85.01
2018-05-16T06:28:20.801Z,84.72
2018-05-16T06:29:20.741Z,85.11
2018-05-16T06:31:13.753Z,84.72
2018-05-16T06:32:13.730Z,85.01
2018-05-16T06:34:06.931Z,85.21
2018-05-16T06:35:06.858Z,84.44
2018-05-16T06:36:59.840Z,83.29
2018-05-16T06:37:59.798Z,81.75
2018-05-16T06:39:52.637Z,81.66
2018-05-16T06:40:52.582Z,82.04
2018-05-16T06:42:45.417Z,82.81
2018-05-16T06:43:45.365Z,83.67
2018-05-16T06:45:38.354Z,83.67
2018-05-16T06:46:38.156Z,82.52
2018-05-16T06:48:31.170Z,84.05
2018-05-16T06:49:31.111Z,83.76
2018-05-16T06:51:23.931Z,83.86
2018-05-16T06:52:23.898Z,83.48
2018-05-16T06:54:17.162Z,83.67
2018-05-16T06:55:17.060Z,82.14
2018-05-16T06:57:10.056Z,83.76
2018-05-16T06:58:10.008Z,83.95
2018-05-16T07:00:03.035Z,82.42
2018-05-16T07:01:03.000Z,82.46
2018-05-16T07:02:55.973Z,82.18
2018-05-16T07:03:55.916Z,82.18
2018-05-16T07:05:48.834Z,79.97
2018-05-16T07:06:48.797Z,79.21
2018-05-16T07:08:41.783Z,80.16
2018-05-16T07:09:41.767Z,79.11
2018-05-16T07:11:34.889Z,78.34
2018-05-16T07:12:34.823Z,77.67
2018-05-16T07:14:27.821Z,77.29
2018-05-16T07:15:27.813Z,78.25
2018-05-16T07:17:20.958Z,77.58
2018-05-16T07:18:20.927Z,77.48
2018-05-16T07:20:13.943Z,77.00
2018-05-16T07:21:13.899Z,76.52
2018-05-16T07:23:06.863Z,76.94
2018-05-16T07:24:06.834Z,76.94
2018-05-16T07:26:00.000Z,75.89
2018-05-16T07:26:59.783Z,74.83
2018-05-16T07:28:52.613Z,76.27
2018-05-16T07:29:52.557Z,75.79
2018-05-16T07:31:45.527Z,75.02
2018-05-16T07:32:45.506Z,74.93
2018-05-16T07:34:38.818Z,73.77
2018-05-16T07:35:38.634Z,73.49
2018-05-16T07:37:31.632Z,73.68
2018-05-16T07:38:31.596Z,74.16
2018-05-16T07:40:24.564Z,73.58
2018-05-16T07:41:24.527Z,73.30
2018-05-16T07:43:17.728Z,72.53
2018-05-16T07:44:17.438Z,72.33
2018-05-16T07:46:10.336Z,74.16
2018-05-16T07:47:10.229Z,74.35
2018-05-16T07:49:03.251Z,74.54
2018-05-16T07:50:03.342Z,75.15
2018-05-16T07:51:56.553Z,74.48
2018-05-16T07:52:56.328Z,72.95
2018-05-16T07:54:49.236Z,74.58
2018-05-16T07:55:49.112Z,74.10
2018-05-16T07:57:42.134Z,73.62
2018-05-16T07:58:42.083Z,74.01
2018-05-16T08:00:35.120Z,74.19
2018-05-16T08:01:35.102Z,73.91
2018-05-16T08:03:28.106Z,73.18
2018-05-16T08:04:28.057Z,73.66
2018-05-16T08:06:20.895Z,72.99
2018-05-16T08:07:20.838Z,72.02
2018-05-16T08:09:14.246Z,71.06
2018-05-16T08:10:14.129Z,70.45
2018-05-16T08:12:07.142Z,70.64
2018-05-16T08:13:07.089Z,70.93
2018-05-16T08:15:00.504Z,70.01
2018-05-16T08:16:00.451Z,70.01
2018-05-16T08:17:53.468Z,70.78
2018-05-16T08:18:53.409Z,71.16
2018-05-16T08:20:46.595Z,71.35
2018-05-16T08:21:46.603Z,71.06
2018-05-16T08:23:39.397Z,70.90
2018-05-16T08:24:39.343Z,70.90
2018-05-16T08:26:32.382Z,69.95
2018-05-16T08:27:32.322Z,70.52
2018-05-16T08:29:25.504Z,70.14
2018-05-16T08:30:25.458Z,69.08
2018-05-16T08:32:18.459Z,69.08
2018-05-16T08:33:18.416Z,69.75
2018-05-16T08:35:11.391Z,68.79
2018-05-16T08:36:11.363Z,69.02
2018-05-16T08:38:04.294Z,67.00
2018-05-16T08:39:04.250Z,67.38
2018-05-16T08:40:57.260Z,67.64
2018-05-16T08:41:57.295Z,66.81
2018-05-16T08:43:50.271Z,66.68
2018-05-16T08:44:50.219Z,66.97
2018-05-16T08:46:43.051Z,67.58
2018-05-16T08:47:43.019Z,66.68
2018-05-16T08:49:36.016Z,68.41
2018-05-16T08:50:35.975Z,68.21
2018-05-16T08:52:28.945Z,67.35
2018-05-16T08:53:28.998Z,67.00
2018-05-16T08:55:21.743Z,66.04
2018-05-16T08:56:21.705Z,65.37
2018-05-16T08:58:14.739Z,66.04
2018-05-16T08:59:14.497Z,64.92
2018-05-16T09:01:07.725Z,64.82
2018-05-16T09:02:07.606Z,64.92
2018-05-16T09:04:01.050Z,64.82
2018-05-16T09:05:00.783Z,64.15
2018-05-16T09:06:53.809Z,63.76
2018-05-16T09:07:53.784Z,64.15
2018-05-16T09:09:46.830Z,64.66
2018-05-16T09:10:46.760Z,64.18
2018-05-16T09:12:39.609Z,64.92
2018-05-16T09:13:39.579Z,65.05
2018-05-16T09:15:32.596Z,63.99
2018-05-16T09:16:32.560Z,64.18
2018-05-16T09:18:25.536Z,65.53
2018-05-16T09:19:25.520Z,66.01
2018-05-16T09:21:18.731Z,66.42
2018-05-16T09:22:18.688Z,65.56
2018-05-16T09:24:11.696Z,63.38
2018-05-16T09:25:11.804Z,62.60
2018-05-16T09:27:04.924Z,62.45
2018-05-16T09:28:04.789Z,62.73
2018-05-16T09:29:57.822Z,61.10
2018-05-16T09:30:57.770Z,62.06
2018-05-16T09:32:50.761Z,60.71
2018-05-16T09:33:50.732Z,60.23
2018-05-16T09:35:43.787Z,60.39
2018-05-16T09:36:43.571Z,60.87
2018-05-16T09:38:36.688Z,60.58
2018-05-16T09:39:36.657Z,60.49
2018-05-16T09:41:29.649Z,59.55
2018-05-16T09:42:29.595Z,59.45
2018-05-16T09:44:22.666Z,60.84
2018-05-16T09:45:22.599Z,61.80
2018-05-16T09:47:15.600Z,62.00
2018-05-16T09:48:15.540Z,62.32
2018-05-16T09:50:08.811Z,61.35
2018-05-16T09:51:08.682Z,61.19
2018-05-16T09:53:01.689Z,60.80
2018-05-16T09:54:01.636Z,58.78
2018-05-16T09:55:54.659Z,58.97
2018-05-16T09:56:54.623Z,59.84
2018-05-16T09:58:47.431Z,59.65
2018-05-16T09:59:47.406Z,58.88
2018-05-16T10:01:40.423Z,57.07
2018-05-16T10:02:40.402Z,57.05
2018-05-16T10:04:33.412Z,59.78
2018-05-16T10:05:33.385Z,57.65
2018-05-16T10:07:26.615Z,57.65
2018-05-16T10:08:26.545Z,57.27
2018-05-16T10:10:19.532Z,57.46
2018-05-16T10:11:19.612Z,57.68
2018-05-16T10:13:12.851Z,57.07
2018-05-16T10:14:12.705Z,56.40
2018-05-16T10:16:05.561Z,55.27
2018-05-16T10:17:05.617Z,55.63
2018-05-16T10:18:58.463Z,55.27
2018-05-16T10:19:58.496Z,55.66
2018-05-16T10:21:51.852Z,54.33
2018-05-16T10:22:51.785Z,54.46
2018-05-16T10:24:44.625Z,53.08
2018-05-16T10:25:44.732Z,55.36
2018-05-16T10:27:37.899Z,55.76
2018-05-16T10:28:37.751Z,55.34
2018-05-16T10:30:30.573Z,55.46
2018-05-16T10:31:30.568Z,55.66
2018-05-16T10:33:23.586Z,53.95
2018-05-16T10:34:23.589Z,53.66
2018-05-16T10:36:16.354Z,54.33
2018-05-16T10:37:16.307Z,55.49
2018-05-16T10:39:09.151Z,53.37
2018-05-16T10:40:09.106Z,54.60
2018-05-16T10:42:02.112Z,55.46
2018-05-16T10:43:02.082Z,55.20
2018-05-16T10:44:55.102Z,54.91
2018-05-16T10:45:55.097Z,54.88
2018-05-16T10:47:48.270Z,54.96
2018-05-16T10:48:48.213Z,55.54
2018-05-16T10:50:41.207Z,55.92
2018-05-16T10:51:41.251Z,55.44
2018-05-16T10:53:34.514Z,55.54
2018-05-16T10:54:34.329Z,56.40
2018-05-16T10:56:27.272Z,56.57
2018-05-16T10:57:27.339Z,57.14
2018-05-16T10:59:20.099Z,56.44
2018-05-16T11:00:20.103Z,56.51
2018-05-16T11:02:13.302Z,57.67
2018-05-16T11:03:13.232Z,57.76
2018-05-16T11:05:06.240Z,58.53
2018-05-16T11:06:06.191Z,57.86
2018-05-16T11:07:59.190Z,57.86
2018-05-16T11:08:59.133Z,58.15
2018-05-16T11:10:52.193Z,58.24
2018-05-16T11:11:52.177Z,58.15
2018-05-16T11:13:45.172Z,59.20
2018-05-16T11:14:45.193Z,59.78
2018-05-16T11:16:38.133Z,59.59
2018-05-16T11:17:38.098Z,59.30
2018-05-16T11:19:31.118Z,60.07
2018-05-16T11:20:31.087Z,59.97
2018-05-16T11:22:24.064Z,59.49
2018-05-16T11:23:24.024Z,59.11
2018-05-16T11:25:17.300Z,58.15
2018-05-16T11:26:17.178Z,57.47
2018-05-16T11:28:10.183Z,56.99
2018-05-16T11:29:10.274Z,57.18
2018-05-16T11:31:03.138Z,56.90
2018-05-16T11:32:03.089Z,57.09
2018-05-16T11:33:56.132Z,56.90
2018-05-16T11:34:55.896Z,57.12
2018-05-16T11:36:48.888Z,57.12
2018-05-16T11:37:48.863Z,57.31
2018-05-16T11:39:41.905Z,56.44
2018-05-16T11:40:41.862Z,55.79
2018-05-16T11:42:34.713Z,55.51
2018-05-16T11:43:34.667Z,55.82
2018-05-16T11:45:27.673Z,54.96
2018-05-16T11:46:27.658Z,54.47
2018-05-16T11:48:20.603Z,54.96
2018-05-16T11:49:20.567Z,54.86
2018-05-16T11:51:13.807Z,55.44
2018-05-16T11:52:13.724Z,55.79
2018-05-16T11:54:06.738Z,55.89
2018-05-16T11:55:06.801Z,55.63
2018-05-16T11:57:00.093Z,54.57
2018-05-16T11:57:59.986Z,55.51
2018-05-16T11:59:53.025Z,55.92
2018-05-16T12:00:52.942Z,55.60
2018-05-16T12:02:46.347Z,55.02
2018-05-16T12:03:46.158Z,55.51
2018-05-16T12:05:39.019Z,55.63
2018-05-16T12:06:38.943Z,55.63
2018-05-16T12:08:31.924Z,56.01
2018-05-16T12:09:31.974Z,55.92
2018-05-16T12:11:25.153Z,56.18
2018-05-16T12:12:25.038Z,57.34
2018-05-16T12:14:18.056Z,56.37
2018-05-16T12:15:18.037Z,57.05
2018-05-16T12:17:11.013Z,56.21
2018-05-16T12:18:10.960Z,56.30
2018-05-16T12:20:03.999Z,55.82
2018-05-16T12:21:03.951Z,55.24
2018-05-16T12:22:56.797Z,55.79
2018-05-16T12:23:56.758Z,55.41
2018-05-16T12:25:49.565Z,55.44
2018-05-16T12:26:49.559Z,55.73
2018-05-16T12:28:42.893Z,54.96
2018-05-16T12:29:42.673Z,55.73
2018-05-16T12:31:35.693Z,55.56
2018-05-16T12:32:35.638Z,54.21
2018-05-16T12:34:28.629Z,52.89
2018-05-16T12:35:28.595Z,53.08
2018-05-16T12:37:21.643Z,52.62
2018-05-16T12:38:21.475Z,52.14
2018-05-16T12:40:14.446Z,52.55
2018-05-16T12:41:14.439Z,51.20
2018-05-16T12:43:07.432Z,51.29
2018-05-16T12:44:07.371Z,50.65
2018-05-16T12:46:00.205Z,50.81
2018-05-16T12:47:00.190Z,52.00
2018-05-16T12:48:53.197Z,49.87
2018-05-16T12:49:52.984Z,49.65
2018-05-16T12:51:46.142Z,52.14
2018-05-16T12:52:46.125Z,52.14
2018-05-16T12:54:39.392Z,52.79
2018-05-16T12:55:39.308Z,52.31
2018-05-16T12:57:32.212Z,53.08
2018-05-16T12:58:32.182Z,53.08
2018-05-16T13:00:25.200Z,54.79
2018-05-16T13:01:25.233Z,54.50
2018-05-16T13:03:17.978Z,54.60
2018-05-16T13:04:17.925Z,55.73
2018-05-16T13:06:10.812Z,55.76
2018-05-16T13:07:10.779Z,55.94
2018-05-16T13:09:03.794Z,55.56
2018-05-16T13:10:03.720Z,56.01
2018-05-16T13:11:57.138Z,56.69
2018-05-16T13:12:57.225Z,57.07
2018-05-16T13:14:51.801Z,59.07
2018-05-16T13:15:51.083Z,59.17
2018-05-16T13:17:44.351Z,62.32
2018-05-16T13:18:44.185Z,63.79
2018-05-16T13:20:37.032Z,67.35
2018-05-16T13:21:37.105Z,70.82
2018-05-16T13:23:29.984Z,74.30
2018-05-16T13:24:30.047Z,75.52
2018-05-16T13:26:23.815Z,80.09
2018-05-16T13:27:23.763Z,81.24
2018-05-16T13:29:16.841Z,83.54
2018-05-16T13:30:16.787Z,86.81
2018-05-16T13:32:09.786Z,87.96
2018-05-16T13:33:09.870Z,87.44
2018-05-16T13:35:02.603Z,87.82
2018-05-16T13:36:02.532Z,86.68
2018-05-16T13:37:55.651Z,90.70
2018-05-16T13:38:55.655Z,88.79
2018-05-16T13:40:48.464Z,92.43
2018-05-16T13:41:48.413Z,92.39
2018-05-16T13:43:41.433Z,91.24
2018-05-16T13:44:41.382Z,92.39
2018-05-16T13:46:34.503Z,93.73
2018-05-16T13:47:34.256Z,93.06
2018-05-16T13:49:27.098Z,93.63
2018-05-16T13:50:27.064Z,94.21
2018-05-16T13:52:20.040Z,93.73
2018-05-16T13:53:19.992Z,93.63
2018-05-16T13:55:12.956Z,93.82
2018-05-16T13:56:12.937Z,94.12
2018-05-16T13:58:05.830Z,92.48
2018-05-16T13:59:05.726Z,93.73
2018-05-16T14:00:58.602Z,94.74
2018-05-16T14:01:58.565Z,95.12
2018-05-16T14:03:51.465Z,93.39
2018-05-16T14:04:51.448Z,91.57
2018-05-16T14:06:44.419Z,93.10
2018-05-16T14:07:44.376Z,92.63
2018-05-16T14:09:37.268Z,94.45
2018-05-16T14:10:37.250Z,95.12
2018-05-16T14:12:30.266Z,94.45
2018-05-16T14:13:30.197Z,95.36
2018-05-16T14:15:23.135Z,93.92
2018-05-16T14:16:23.110Z,94.78
2018-05-16T14:18:16.307Z,95.50
2018-05-16T14:19:16.167Z,95.21
2018-05-16T14:21:08.986Z,93.68
2018-05-16T14:22:08.961Z,94.06
2018-05-16T14:24:01.950Z,91.75
2018-05-16T14:25:01.890Z,87.72
2018-05-16T14:26:55.150Z,90.60
2018-05-16T14:27:54.979Z,90.80
2018-05-16T14:29:48.012Z,88.30
2018-05-16T14:30:47.937Z,88.63
2018-05-16T14:32:40.915Z,87.53
2018-05-16T14:33:40.892Z,87.48
2018-05-16T14:35:33.737Z,85.65
2018-05-16T14:36:33.664Z,84.98
2018-05-16T14:38:26.650Z,83.30
2018-05-16T14:39:26.528Z,83.83
2018-05-16T14:41:19.512Z,81.09
2018-05-16T14:42:19.457Z,81.32
2018-05-16T14:44:12.461Z,79.36
2018-05-16T14:45:12.408Z,82.24
2018-05-16T14:47:05.217Z,78.02
2018-05-16T14:48:05.197Z,80.51
2018-05-16T14:49:58.188Z,78.69
2018-05-16T14:50:58.152Z,81.04
2018-05-16T14:52:51.138Z,80.51
2018-05-16T14:53:51.110Z,80.65
2018-05-16T14:55:43.952Z,80.94
2018-05-16T14:56:43.903Z,80.46
2018-05-16T14:58:36.733Z,80.36
2018-05-16T14:59:36.750Z,79.40
2018-05-16T15:01:29.701Z,77.00
2018-05-16T15:02:29.646Z,75.59
2018-05-16T15:04:22.882Z,75.21
2018-05-16T15:05:22.819Z,73.19
2018-05-16T15:07:15.878Z,72.13
2018-05-16T15:08:15.851Z,70.50
2018-05-16T15:10:08.872Z,71.01
2018-05-16T15:11:08.805Z,69.85
2018-05-16T15:13:02.008Z,74.96
2018-05-16T15:14:01.952Z,75.05
2018-05-16T15:15:54.938Z,72.78
2018-05-16T15:16:54.884Z,71.14
2018-05-16T15:18:47.852Z,70.86
2018-05-16T15:19:47.824Z,70.56
2018-05-16T15:21:40.663Z,69.31
2018-05-16T15:22:40.598Z,68.99
2018-05-16T15:24:33.628Z,70.15
2018-05-16T15:25:33.604Z,72.39
2018-05-16T15:27:26.685Z,68.74
2018-05-16T15:28:26.590Z,68.06
2018-05-16T15:30:19.817Z,69.12
2018-05-16T15:31:19.698Z,67.49
2018-05-16T15:33:12.502Z,69.12
2018-05-16T15:34:12.474Z,70.18
2018-05-16T15:36:05.485Z,71.72
2018-05-16T15:37:05.489Z,71.34
2018-05-16T15:38:58.643Z,72.55
2018-05-16T15:39:58.552Z,72.94
2018-05-16T15:41:51.592Z,72.26
2018-05-16T15:42:51.627Z,73.13
2018-05-16T15:44:44.489Z,72.74
2018-05-16T15:45:44.463Z,72.74
2018-05-16T15:47:37.357Z,72.74
2018-05-16T15:48:37.272Z,72.45
2018-05-16T15:50:30.264Z,73.80
2018-05-16T15:51:30.213Z,71.20
2018-05-16T15:53:23.198Z,70.53
2018-05-16T15:54:23.178Z,71.20
2018-05-16T15:56:16.628Z,71.20
2018-05-16T15:57:16.265Z,71.30
2018-05-16T15:59:09.255Z,72.65
2018-05-16T16:00:09.248Z,72.36
2018-05-16T16:02:02.052Z,73.13
2018-05-16T16:03:02.003Z,71.88
2018-05-16T16:04:55.213Z,73.61
2018-05-16T16:05:55.152Z,72.84
2018-05-16T16:07:48.171Z,71.20
2018-05-16T16:08:48.256Z,71.91
2018-05-16T16:10:40.934Z,71.30
2018-05-16T16:11:40.942Z,71.49
2018-05-16T16:13:34.009Z,71.40
2018-05-16T16:14:33.828Z,72.26
2018-05-16T16:16:26.855Z,72.26
2018-05-16T16:17:26.813Z,72.32
2018-05-16T16:19:19.882Z,72.90
2018-05-16T16:20:19.816Z,73.32
2018-05-16T16:22:12.912Z,73.03
2018-05-16T16:23:12.778Z,73.22
2018-05-16T16:25:06.696Z,71.24
2018-05-16T16:26:06.584Z,71.24
2018-05-16T16:27:59.572Z,70.18
2018-05-16T16:28:59.646Z,69.31
2018-05-16T16:30:52.952Z,70.09
2018-05-16T16:31:52.686Z,70.05
2018-05-16T16:33:46.591Z,70.82
2018-05-16T16:34:46.588Z,70.72
2018-05-16T16:36:39.875Z,71.49
2018-05-16T16:37:39.821Z,71.30
2018-05-16T16:39:33.293Z,70.15
2018-05-16T16:40:32.837Z,71.40
2018-05-16T16:42:26.220Z,71.11
2018-05-16T16:43:26.114Z,69.95
2018-05-16T16:45:19.866Z,70.34
2018-05-16T16:46:19.822Z,69.85
2018-05-16T16:48:12.893Z,71.40
2018-05-16T16:49:12.858Z,71.20
2018-05-16T16:51:07.035Z,72.26
2018-05-16T16:52:06.819Z,72.84
2018-05-16T16:53:59.910Z,72.65
2018-05-16T16:54:59.826Z,72.55
2018-05-16T16:56:52.813Z,73.42
2018-05-16T16:57:52.791Z,73.90
2018-05-16T16:59:45.736Z,73.96
2018-05-16T17:00:45.607Z,73.86
2018-05-16T17:02:38.589Z,74.15
2018-05-16T17:03:38.582Z,74.05
2018-05-16T17:05:31.589Z,73.77
2018-05-16T17:06:31.545Z,74.25
2018-05-16T17:08:24.764Z,75.02
2018-05-16T17:09:24.735Z,74.44
2018-05-16T17:11:17.735Z,74.63
2018-05-16T17:12:17.776Z,74.44
2018-05-16T17:14:10.915Z,74.44
2018-05-16T17:15:10.871Z,74.44
2018-05-16T17:17:04.728Z,74.44
2018-05-16T17:18:04.655Z,75.11
2018-05-16T17:19:58.576Z,76.46
2018-05-16T17:20:57.645Z,78.00
2018-05-16T17:22:50.849Z,78.73
2018-05-16T17:23:50.764Z,78.34
2018-05-16T17:25:43.844Z,79.98
2018-05-16T17:26:43.876Z,81.19
2018-05-16T17:28:36.975Z,86.43
2018-05-16T17:29:36.895Z,87.19
2018-05-16T17:31:29.930Z,87.96
2018-05-16T17:32:29.886Z,88.54
2018-05-16T17:34:22.845Z,89.26
2018-05-16T17:35:22.833Z,90.03
2018-05-16T17:37:15.826Z,90.61
2018-05-16T17:38:15.620Z,91.76
2018-05-16T17:40:08.671Z,90.70
2018-05-16T17:41:08.601Z,90.90
2018-05-16T17:43:01.657Z,91.19
2018-05-16T17:44:01.566Z,90.70
2018-05-16T17:45:54.442Z,91.66
2018-05-16T17:46:54.402Z,92.05
2018-05-16T17:48:47.220Z,95.50
2018-05-16T17:49:47.161Z,98.43
2018-05-16T17:51:40.180Z,99.96
2018-05-16T17:52:40.136Z,99.99
2018-05-16T17:54:33.145Z,99.99
2018-05-16T17:55:33.127Z,99.91
2018-05-16T17:57:26.163Z,99.99
2018-05-16T17:58:25.998Z,99.99
2018-05-16T18:00:18.978Z,99.99
2018-05-16T18:01:18.926Z,99.99
2018-05-16T18:03:12.796Z,99.99
2018-05-16T18:04:12.782Z,99.99
2018-05-16T18:06:06.040Z,99.99
2018-05-16T18:07:05.848Z,99.99
2018-05-16T18:08:58.876Z,99.99
2018-05-16T18:09:58.806Z,99.99
2018-05-16T18:11:52.262Z,99.99
2018-05-16T18:12:52.158Z,99.99
2018-05-16T18:14:44.976Z,99.99
2018-05-16T18:15:44.937Z,99.99
2018-05-16T18:17:37.917Z,99.99
2018-05-16T18:18:37.910Z,99.99
2018-05-16T18:20:31.310Z,99.99
2018-05-16T18:21:30.989Z,99.99
2018-05-16T18:23:24.041Z,99.99
2018-05-16T18:24:23.974Z,99.99
2018-05-16T18:26:16.969Z,99.99
2018-05-16T18:27:16.915Z,99.99
2018-05-16T18:29:09.910Z,99.99
2018-05-16T18:30:09.749Z,99.99
2018-05-16T18:32:02.796Z,99.99
2018-05-16T18:33:02.705Z,99.99